Bexar, Arkansas
Current Conditions -  °F | °C
As of 8:14 AM on Saturday 20 Dec 2014 (Local Time) from KBPK Reporting Station
Haze Haze  
Wind Chill:   Ceiling: 1100
Heat Index:   Visibility: 3mi
Dew Point:   Wind: 0mph
Humidity: 97%   Direction: NA
Pressure: 30.23"   Gusts: NA
Location:  36.29°N, 92°W
Report Text: KBPK 201414Z AUTO 00000KT 3SM BR OVC011 02/02 A3023 RMK AO2 T00220017
Loading
Personal Weather Stations






























Interactive Weather Map New forecast layout! Learn more

10-Day Weather Forecast

Advertisements
Track Severe Weather on mobile